Latest Weather Observations for Dennes Point

IDT60901

Issued at 7:41 am EDT Saturday 16 October 2021 (issued every 10 minutes, with the page automatically refreshed every 10 minutes)

About weather observations | Map of Hobart area stations | Latest observations for Hobart area | Other Formats
Station Details ID: 094255 Name: DENNES POINT Lat: -43.06 Lon: 147.36 Height: 5.67 m
Data from the previous 72 hours. | See also: Recent months at Dennes Point
Date/Time
EDT
Temp
°C
App
Temp
°C
Dew
Point
°C
Rel
Hum
%
Delta-T
°C
Wind Press
QNH
hPa
Press
MSL
hPa
Rain since
9am
mm
Dir  Spd
km/h
Gust
km/h
Spd
kts
Gust
kts
16/07:30am 10.1 4.2 7.7 85 1.2 SSW 28 46 15 25 998.7 998.7 11.6
16/07:10am 10.3 4.1 7.7 84 1.2 SSW 30 50 16 27 998.2 998.2 11.6
16/07:00am 10.2 4.4 7.8 85 1.2 SSW 28 43 15 23 998.0 998.0 11.6
16/06:30am 10.1 3.0 7.9 86 1.1 SW 35 56 19 30 997.6 997.6 11.6
16/06:03am 10.2 3.5 8.3 88 0.9 SW 33 57 18 31 997.0 997.0 11.4
16/06:00am 10.2 3.6 8.5 89 0.8 SW 33 48 18 26 997.0 997.0 11.4
16/05:49am 10.2 3.9 9.0 92 0.6 SW 32 54 17 29 996.8 996.8 11.4
16/05:30am 10.3 5.2 9.1 92 0.6 SW 26 43 14 23 996.7 996.7 11.0
16/05:00am 10.4 4.4 8.8 90 0.8 SW 30 46 16 25 996.4 996.4 10.6
16/04:45am 10.6 5.0 8.7 88 0.9 SW 28 46 15 25 996.3 996.3 10.4
16/04:30am 10.7 4.7 8.5 86 1.1 SW 30 44 16 24 996.0 996.0 10.4
16/04:01am 10.4 4.7 8.5 88 0.9 SSW 28 48 15 26 996.2 996.2 10.4
16/04:00am 10.4 4.7 8.5 88 0.9 SSW 28 46 15 25 996.3 996.3 10.4
16/03:30am 10.5 4.1 8.6 88 0.9 SSW 32 54 17 29 996.2 996.2 10.2
16/03:00am 10.7 3.7 8.3 85 1.2 SSW 35 59 19 32 996.0 996.0 10.2
16/02:30am 10.9 4.4 8.1 83 1.4 SW 32 54 17 29 995.9 995.9 10.2
16/02:04am 10.4 2.9 8.0 85 1.2 SW 37 57 20 31 996.0 996.0 10.2
16/02:00am 10.4 2.5 8.0 85 1.2 SW 39 57 21 31 996.0 996.0 10.2
16/01:30am 10.7 4.5 9.3 91 0.7 SSW 32 54 17 29 995.9 995.9 10.0
16/01:03am 10.9 5.3 10.0 94 0.5 SW 30 50 16 27 995.8 995.8 9.6
16/01:00am 11.0 5.4 10.1 94 0.5 SW 30 43 16 23 995.8 995.8 9.4
16/12:30am 11.2 5.2 10.1 93 0.6 SW 32 48 17 26 995.6 995.6 8.8
16/12:08am 11.4 5.8 10.3 93 0.6 SW 30 48 16 26 995.5 995.5 8.6
16/12:00am 11.7 6.6 10.6 93 0.6 SW 28 41 15 22 995.6 995.6 8.6
 
Date/Time
EDT
Temp
°C
App
Temp
°C
Dew
Point
°C
Rel
Hum
%
Delta-T
°C
Wind Press
QNH
hPa
Press
MSL
hPa
Rain since
9am
mm
Dir  Spd
km/h
Gust
km/h
Spd
kts
Gust
kts
15/11:30pm 12.3 8.2 11.4 94 0.5 SW 24 39 13 21 995.2 995.2 8.4
15/11:00pm 12.5 9.5 11.9 96 0.3 SW 19 26 10 14 994.9 994.9 8.2
15/10:30pm 12.5 10.3 12.0 97 0.3 SW 15 20 8 11 995.1 995.1 8.2
15/10:00pm 12.6 10.4 12.0 96 0.3 SW 15 19 8 10 995.0 995.0 8.2
15/09:30pm 12.6 10.8 12.0 96 0.3 SW 13 17 7 9 995.1 995.1 8.0
15/09:00pm 12.8 11.0 12.2 96 0.3 WSW 13 17 7 9 995.2 995.2 6.6
15/08:30pm 12.8 11.0 12.2 96 0.3 SW 13 17 7 9 994.9 994.9 6.0
15/08:00pm 13.0 11.7 12.4 96 0.3 SW 11 15 6 8 994.8 994.8 6.0
15/07:30pm 13.3 12.4 12.7 96 0.3 SW 9 11 5 6 994.6 994.6 6.0
15/07:00pm 13.4 12.9 12.8 96 0.3 WSW 7 11 4 6 994.5 994.5 5.6
15/06:30pm 13.6 12.8 13.0 96 0.3 SW 9 11 5 6 994.2 994.2 5.4
15/06:00pm 13.2 14.0 12.4 95 0.4 CALM 0 0 0 0 993.9 993.9 5.4
15/05:30pm 13.4 12.9 12.5 94 0.5 SSW 7 7 4 4 993.8 993.8 5.4
15/05:00pm 13.7 13.4 12.6 93 0.6 SSW 6 6 3 3 993.8 993.8 5.4
15/04:30pm 14.0 13.8 12.9 93 0.6 SW 6 7 3 4 993.9 993.9 5.4
15/04:00pm 14.8 14.3 13.8 94 0.6 SW 9 13 5 7 993.9 993.9 5.4
15/03:30pm 14.3 13.3 13.5 95 0.4 SW 11 15 6 8 994.3 994.3 5.4
15/03:00pm 14.1 14.0 13.3 95 0.4 NNE 6 11 3 6 994.4 994.4 5.4
15/02:30pm 14.3 13.8 13.7 96 0.3 SSE 9 19 5 10 994.7 994.7 5.4
15/02:00pm 14.1 13.1 13.3 95 0.4 SE 11 17 6 9 994.7 994.7 5.4
15/01:30pm 14.3 13.8 13.7 96 0.3 SSE 9 13 5 7 995.3 995.3 5.4
15/01:00pm 14.0 13.4 13.4 96 0.3 SSE 9 19 5 10 995.6 995.6 5.2
15/12:30pm 14.1 13.5 13.5 96 0.3 SSE 9 15 5 8 996.3 996.3 5.2
15/12:00pm 13.7 13.3 12.9 95 0.4 SSE 7 13 4 7 996.5 996.5 5.2
15/11:30am 13.7 13.0 13.1 96 0.3 SSE 9 15 5 8 997.3 997.3 4.2
15/11:00am 13.5 12.7 12.9 96 0.3 SE 9 13 5 7 997.7 997.7 3.8
15/10:30am 13.1 11.0 12.5 96 0.3 SSE 15 19 8 10 998.0 998.0 3.2
15/10:00am 12.9 10.7 12.1 95 0.4 SE 15 22 8 12 998.5 998.5 2.4
15/09:30am 13.1 11.3 12.2 94 0.5 SSE 13 20 7 11 998.8 998.8 0.4
15/09:00am 13.0 11.2 12.1 94 0.5 SSE 13 20 7 11 999.1 999.1 8.6
15/08:30am 12.9 11.1 12.1 95 0.4 SSE 13 20 7 11 999.6 999.6 8.6
15/08:00am 12.8 11.0 12.0 95 0.4 SSE 13 20 7 11 999.9 999.9 8.6
15/07:30am 12.7 10.8 11.9 95 0.4 SE 13 19 7 10 1000.2 1000.2 8.6
15/07:00am 12.7 10.8 11.9 95 0.4 SE 13 17 7 9 1000.5 1000.5 8.0
15/06:30am 12.8 11.3 12.0 95 0.4 SSE 11 17 6 9 1000.6 1000.6 7.8
15/06:00am 12.8 11.3 12.0 95 0.4 SSE 11 19 6 10 1000.9 1000.9 7.2
15/05:30am 12.8 10.9 11.9 94 0.5 ESE 13 19 7 10 1001.2 1001.2 7.2
15/05:00am 12.8 11.0 12.0 95 0.4 ESE 13 17 7 9 1001.5 1001.5 7.0
15/04:30am 12.9 9.9 12.0 94 0.5 E 19 22 10 12 1002.1 1002.0 7.0
15/04:00am 12.9 10.7 12.0 94 0.5 E 15 20 8 11 1002.5 1002.4 6.8
15/03:30am 12.9 10.3 12.0 94 0.5 E 17 22 9 12 1002.9 1002.8 6.8
15/03:00am 12.9 10.7 12.0 94 0.5 E 15 24 8 13 1003.4 1003.3 6.8
15/02:30am 13.0 9.5 12.1 94 0.5 ENE 22 26 12 14 1003.8 1003.7 6.8
15/02:00am 13.0 9.5 12.1 94 0.5 ENE 22 28 12 15 1004.4 1004.4 6.8
15/01:30am 13.0 9.1 12.2 95 0.4 ENE 24 28 13 15 1004.9 1004.9 6.8
15/01:00am 13.0 10.1 12.2 95 0.4 ENE 19 22 10 12 1005.2 1005.2 6.8
15/12:30am 13.0 10.4 12.1 94 0.5 ENE 17 20 9 11 1005.5 1005.5 6.8
15/12:00am 13.0 10.4 12.1 94 0.5 ENE 17 20 9 11 1005.8 1005.8 6.8
 
Date/Time
EDT
Temp
°C
App
Temp
°C
Dew
Point
°C
Rel
Hum
%
Delta-T
°C
Wind Press
QNH
hPa
Press
MSL
hPa
Rain since
9am
mm
Dir  Spd
km/h
Gust
km/h
Spd
kts
Gust
kts
14/11:30pm 12.9 9.9 12.0 94 0.5 ENE 19 22 10 12 1006.3 1006.3 6.8
14/11:00pm 12.9 9.9 12.0 94 0.5 ENE 19 22 10 12 1006.8 1006.8 6.8
14/10:30pm 12.9 9.3 12.0 94 0.5 ENE 22 26 12 14 1007.2 1007.2 5.8
14/10:00pm 12.7 9.5 11.9 95 0.4 E 20 24 11 13 1007.5 1007.5 5.6
14/09:30pm 12.6 8.6 11.8 95 0.4 E 24 30 13 16 1007.7 1007.7 5.6
14/09:00pm 12.4 9.1 11.6 95 0.4 E 20 24 11 13 1007.9 1007.9 5.2
14/08:30pm 12.4 8.7 11.5 94 0.5 E 22 24 12 13 1008.0 1008.0 5.0
14/08:00pm 12.4 9.6 11.3 93 0.6 ENE 17 20 9 11 1008.3 1008.3 3.6
14/07:30pm 12.3 9.0 11.0 92 0.7 ENE 19 22 10 12 1008.3 1008.3 3.4
14/07:00pm 12.3 8.9 11.2 93 0.6 ENE 20 28 11 15 1008.4 1008.4 3.2
14/06:30pm 12.4 8.9 11.0 91 0.7 ENE 20 24 11 13 1008.4 1008.4 3.0
14/06:00pm 12.3 9.0 11.0 92 0.7 ENE 19 22 10 12 1008.5 1008.5 3.0
14/05:30pm 12.2 8.9 10.9 92 0.7 ENE 19 26 10 14 1008.7 1008.7 2.6
14/05:00pm 12.1 8.7 10.7 91 0.7 NE 19 22 10 12 1009.0 1009.0 2.0
14/04:30pm 12.3 8.7 10.7 90 0.8 ENE 20 26 11 14 1009.2 1009.2 1.2
14/04:00pm 12.6 8.7 10.7 88 1.0 NE 22 26 12 14 1009.3 1009.3 0.6
14/03:30pm 13.1 9.1 10.5 84 1.4 ENE 22 32 12 17 1009.5 1009.5 0.2
14/03:00pm 13.5 8.7 10.3 81 1.7 NE 26 32 14 17 1009.8 1009.8 0.2
14/02:30pm 13.0 7.1 10.4 84 1.3 NE 32 39 17 21 1010.1 1010.1 0.2
14/02:00pm 12.9 7.1 10.8 87 1.1 NE 32 37 17 20 1010.3 1010.3 0.2
14/01:30pm 13.5 8.6 9.9 79 1.9 NE 26 32 14 17 1010.6 1010.6 0.0
14/01:00pm 13.7 8.7 9.6 76 2.1 NE 26 32 14 17 1010.9 1010.9 0.0
14/12:30pm 14.0 8.8 9.0 72 2.5 NE 26 32 14 17 1011.3 1011.3 0.0
14/12:00pm 13.9 9.2 9.1 73 2.4 NE 24 30 13 16 1011.5 1011.5 0.0
14/11:30am 13.6 7.1 9.1 74 2.3 NE 33 39 18 21 1011.7 1011.7 0.0
14/11:00am 13.6 8.5 9.3 75 2.2 NE 26 33 14 18 1012.0 1012.0 0.0
14/10:30am 14.0 9.6 9.0 72 2.5 NE 22 28 12 15 1012.2 1012.2 0.0
14/10:00am 13.8 10.6 9.8 77 2.1 NNE 17 20 9 11 1012.6 1012.6 0.0
14/09:30am 13.3 8.5 9.0 75 2.2 NE 24 32 13 17 1012.8 1012.8 0.0
14/09:00am 12.7 8.9 9.0 78 1.9 NE 19 22 10 12 1013.0 1013.0 0.0
14/08:30am 12.4 7.7 9.4 82 1.5 NE 24 30 13 16 1013.0 1013.0 0.0
14/08:00am 12.0 7.0 9.4 84 1.3 NE 26 33 14 18 1013.1 1013.1 0.0
14/07:30am 11.8 6.8 9.5 86 1.2 ENE 26 32 14 17 1013.2 1013.2 0.0
14/07:00am 11.7 6.3 9.6 87 1.1 ENE 28 33 15 18 1013.2 1013.2 0.0
14/06:30am 11.7 6.7 9.6 87 1.1 NE 26 33 14 18 1013.3 1013.3 0.0
14/06:00am 11.8 6.5 9.7 87 1.1 ENE 28 33 15 18 1013.0 1013.0 0.0
14/05:30am 11.8 8.0 9.7 87 1.1 ENE 20 28 11 15 1013.0 1013.0 0.0
14/05:00am 11.5 8.3 10.1 91 0.7 ENE 17 20 9 11 1013.0 1013.0 0.0
14/04:30am 11.4 7.3 10.0 91 0.7 NE 22 30 12 16 1013.1 1013.1 0.0
14/04:00am 11.4 7.8 10.0 91 0.7 NE 19 24 10 13 1013.4 1013.4 0.0
14/03:30am 11.9 9.0 9.8 87 1.1 NE 15 19 8 10 1013.7 1013.7 0.0
14/03:00am 11.9 8.2 9.5 85 1.2 NE 19 24 10 13 1014.0 1014.0 0.0
14/02:30am 11.9 9.3 9.3 84 1.3 NE 13 17 7 9 1014.3 1014.3 0.0
14/02:00am 11.7 8.2 8.9 83 1.4 NE 17 20 9 11 1014.7 1014.7 0.0
14/01:30am 11.4 7.3 8.6 83 1.4 NE 20 24 11 13 1015.1 1015.1 0.0
14/01:00am 11.5 7.9 8.5 82 1.5 NE 17 24 9 13 1015.3 1015.3 0.0
14/12:30am 11.4 7.4 8.3 81 1.5 NNE 19 22 10 12 1015.6 1015.6 0.0
14/12:00am 11.6 7.0 8.3 80 1.6 NNE 22 26 12 14 1016.0 1016.0 0.0
 
Date/Time
EDT
Temp
°C
App
Temp
°C
Dew
Point
°C
Rel
Hum
%
Delta-T
°C
Wind Press
QNH
hPa
Press
MSL
hPa
Rain since
9am
mm
Dir  Spd
km/h
Gust
km/h
Spd
kts
Gust
kts
13/11:30pm 11.5 7.0 8.4 81 1.5 NNE 22 26 12 14 1016.3 1016.3 0.0
13/11:00pm 11.5 6.9 8.0 79 1.7 NNE 22 26 12 14 1016.4 1016.4 0.0
13/10:30pm 11.5 6.1 8.2 80 1.6 NNE 26 30 14 16 1016.5 1016.5 0.0
13/10:00pm 11.4 6.1 8.6 83 1.4 NNE 26 30 14 16 1016.7 1016.7 0.0
13/09:30pm 11.6 7.1 8.6 82 1.5 NE 22 28 12 15 1016.8 1016.8 0.0
13/09:00pm 11.8 7.8 8.1 78 1.8 NNE 19 28 10 15 1017.0 1017.0 0.0
13/08:30pm 12.0 8.0 8.1 77 1.9 NNE 19 28 10 15 1016.7 1016.7 0.0
13/08:00pm 12.3 8.0 8.0 75 2.1 NNE 20 30 11 16 1016.5 1016.5 0.0
13/07:30pm 12.5 8.3 8.4 76 2.0 NNE 20 26 11 14 1016.2 1016.2 0.0
13/07:00pm 12.8 6.9 7.7 71 2.5 NE 28 37 15 20 1015.8 1015.8 0.0
13/06:30pm 13.2 6.6 7.6 69 2.7 NE 32 39 17 21 1015.5 1015.5 0.0
13/06:00pm 13.0 6.0 7.0 67 2.9 NE 33 43 18 23 1015.3 1015.3 0.0
13/05:30pm 13.2 6.1 7.9 70 2.6 NE 35 43 19 23 1015.0 1015.0 0.0
13/05:00pm 13.6 7.8 8.0 69 2.8 NE 28 35 15 19 1015.0 1015.0 0.0
13/04:30pm 13.6 7.4 8.0 69 2.8 NE 30 41 16 22 1015.1 1015.1 0.0
13/04:00pm 14.5 8.0 8.0 65 3.2 NE 32 41 17 22 1015.1 1015.1 0.0
13/03:30pm 14.5 7.7 7.5 63 3.5 NE 33 44 18 24 1015.2 1015.2 0.0
13/03:00pm 14.7 7.6 8.0 64 3.3 ENE 35 41 19 22 1015.4 1015.4 0.0
13/02:30pm 14.6 8.3 7.6 63 3.5 NE 30 37 16 20 1015.7 1015.7 0.0
13/02:00pm 14.6 7.9 8.1 65 3.2 NE 33 41 18 22 1015.8 1015.8 0.0
13/01:30pm 14.3 7.5 7.6 64 3.3 NE 33 43 18 23 1016.1 1016.1 0.0
13/01:00pm 14.6 11.3 6.4 58 3.9 NNE 13 28 7 15 1016.3 1016.3 0.0
13/12:30pm 15.1 10.3 7.4 60 3.8 NE 22 33 12 18 1016.6 1016.6 0.0
13/12:00pm 13.9 8.8 7.7 66 3.1 NE 24 30 13 16 1017.1 1017.1 0.0
13/11:30am 12.9 9.1 6.0 63 3.3 NNE 15 20 8 11 1017.7 1017.7 0.0
13/11:00am 13.4 8.8 5.8 60 3.6 NNE 19 22 10 12 1018.0 1018.0 0.0
13/10:30am 13.4 9.3 6.3 62 3.4 NNE 17 20 9 11 1018.3 1018.3 0.0
13/10:00am 11.7 7.6 4.4 61 3.3 N 15 17 8 9 1018.6 1018.6 0.0
13/09:30am 11.3 6.9 5.0 65 2.9 NNE 17 19 9 10 1018.8 1018.8 0.0
13/09:00am 11.2 6.2 4.7 64 2.9 NNE 20 22 11 12 1019.2 1019.2 0.0
13/08:30am 10.7 5.7 4.4 65 2.8 NNE 20 24 11 13 1019.4 1019.4 0.0
13/08:00am 10.6 6.0 5.4 70 2.4 NNE 19 22 10 12 1019.5 1019.5 0.0

Latest Capital City Observations: Canberra | Sydney | Melbourne | Brisbane | Adelaide | Perth | Hobart | Darwin

Other formats

Comma delimited format used in spreadsheet applications
http://www.bom.gov.au/fwo/IDT60901/IDT60901.94988.axf

JavaScript Object Notation format (JSON) in row-major order
http://www.bom.gov.au/fwo/IDT60901/IDT60901.94988.json

Data quality

Most of these data are generated automatically and are frequently updated. Quality checks on data are not normally performed. It is possible for incorrect values to appear. Refer to information at About Latest Weather Observations and please check the disclaimer before using these data.